sensor_id;sensor_type;location;lat;lon;timestamp;temperature;humidity
46231;DHT22;31949;51.404;-0.038;2023-02-22T00:00:44;7.60;99.90
46231;DHT22;31949;51.404;-0.038;2023-02-22T00:03:22;7.60;99.90
46231;DHT22;31949;51.404;-0.038;2023-02-22T00:05:56;7.60;99.90
46231;DHT22;31949;51.404;-0.038;2023-02-22T00:08:32;7.60;99.90
46231;DHT22;31949;51.404;-0.038;2023-02-22T00:11:02;7.60;99.90
46231;DHT22;31949;51.404;-0.038;2023-02-22T00:13:30;7.60;99.90
46231;DHT22;31949;51.404;-0.038;2023-02-22T00:15:58;7.60;99.90
46231;DHT22;31949;51.404;-0.038;2023-02-22T00:18:27;7.70;99.90
46231;DHT22;31949;51.404;-0.038;2023-02-22T00:20:55;7.70;99.90
46231;DHT22;31949;51.404;-0.038;2023-02-22T00:23:27;7.70;99.90
46231;DHT22;31949;51.404;-0.038;2023-02-22T00:25:57;7.70;99.90
46231;DHT22;31949;51.404;-0.038;2023-02-22T00:28:25;7.80;99.90
46231;DHT22;31949;51.404;-0.038;2023-02-22T00:30:53;7.80;99.90
46231;DHT22;31949;51.404;-0.038;2023-02-22T00:33:22;7.70;99.90
46231;DHT22;31949;51.404;-0.038;2023-02-22T00:35:49;7.80;99.90
46231;DHT22;31949;51.404;-0.038;2023-02-22T00:38:17;7.70;99.90
46231;DHT22;31949;51.404;-0.038;2023-02-22T00:40:45;7.80;99.90
46231;DHT22;31949;51.404;-0.038;2023-02-22T00:43:13;7.80;99.90
46231;DHT22;31949;51.404;-0.038;2023-02-22T00:45:41;7.70;99.90
46231;DHT22;31949;51.404;-0.038;2023-02-22T00:48:08;7.70;99.90
46231;DHT22;31949;51.404;-0.038;2023-02-22T00:50:36;7.70;99.90
46231;DHT22;31949;51.404;-0.038;2023-02-22T00:53:04;7.70;99.90
46231;DHT22;31949;51.404;-0.038;2023-02-22T00:55:34;7.70;99.90
46231;DHT22;31949;51.404;-0.038;2023-02-22T00:58:03;7.70;99.90
46231;DHT22;31949;51.404;-0.038;2023-02-22T01:00:37;7.70;99.90
46231;DHT22;31949;51.404;-0.038;2023-02-22T01:03:08;7.80;99.90
46231;DHT22;31949;51.404;-0.038;2023-02-22T01:05:37;7.80;99.90
46231;DHT22;31949;51.404;-0.038;2023-02-22T01:08:06;7.80;99.90
46231;DHT22;31949;51.404;-0.038;2023-02-22T01:10:35;7.80;99.90
46231;DHT22;31949;51.404;-0.038;2023-02-22T01:13:04;7.90;99.90
46231;DHT22;31949;51.404;-0.038;2023-02-22T01:15:37;7.90;99.90
46231;DHT22;31949;51.404;-0.038;2023-02-22T01:18:04;7.80;99.90
46231;DHT22;31949;51.404;-0.038;2023-02-22T01:20:32;7.90;99.90
46231;DHT22;31949;51.404;-0.038;2023-02-22T01:23:01;7.80;99.90
46231;DHT22;31949;51.404;-0.038;2023-02-22T01:25:30;7.80;99.90
46231;DHT22;31949;51.404;-0.038;2023-02-22T01:27:59;7.80;99.90
46231;DHT22;31949;51.404;-0.038;2023-02-22T01:30:30;7.80;99.90
46231;DHT22;31949;51.404;-0.038;2023-02-22T01:32:59;7.80;99.90
46231;DHT22;31949;51.404;-0.038;2023-02-22T01:35:30;7.80;99.90
46231;DHT22;31949;51.404;-0.038;2023-02-22T01:37:58;7.90;99.90
46231;DHT22;31949;51.404;-0.038;2023-02-22T01:40:37;7.80;99.90
46231;DHT22;31949;51.404;-0.038;2023-02-22T01:43:18;7.80;99.90
46231;DHT22;31949;51.404;-0.038;2023-02-22T01:45:52;7.80;99.90
46231;DHT22;31949;51.404;-0.038;2023-02-22T01:51:00;7.90;99.90
46231;DHT22;31949;51.404;-0.038;2023-02-22T01:53:34;7.90;99.90
46231;DHT22;31949;51.404;-0.038;2023-02-22T01:56:03;7.90;99.90
46231;DHT22;31949;51.404;-0.038;2023-02-22T01:58:32;7.90;99.90
46231;DHT22;31949;51.404;-0.038;2023-02-22T02:01:01;7.90;99.90
46231;DHT22;31949;51.404;-0.038;2023-02-22T02:03:31;7.90;99.90
46231;DHT22;31949;51.404;-0.038;2023-02-22T02:06:03;7.90;99.90
46231;DHT22;31949;51.404;-0.038;2023-02-22T02:08:40;7.90;99.90
46231;DHT22;31949;51.404;-0.038;2023-02-22T02:11:13;7.90;99.90
46231;DHT22;31949;51.404;-0.038;2023-02-22T02:13:41;7.80;99.90
46231;DHT22;31949;51.404;-0.038;2023-02-22T02:16:08;7.80;99.90
46231;DHT22;31949;51.404;-0.038;2023-02-22T02:18:35;7.80;99.90
46231;DHT22;31949;51.404;-0.038;2023-02-22T02:34:56;7.80;99.90
46231;DHT22;31949;51.404;-0.038;2023-02-22T02:38:15;7.90;99.90
46231;DHT22;31949;51.404;-0.038;2023-02-22T02:45:37;7.80;99.90
46231;DHT22;31949;51.404;-0.038;2023-02-22T02:48:08;7.80;99.90
46231;DHT22;31949;51.404;-0.038;2023-02-22T02:50:44;7.80;99.90
46231;DHT22;31949;51.404;-0.038;2023-02-22T02:53:18;7.80;99.90
46231;DHT22;31949;51.404;-0.038;2023-02-22T02:55:46;7.80;99.90
46231;DHT22;31949;51.404;-0.038;2023-02-22T02:58:20;7.80;99.90
46231;DHT22;31949;51.404;-0.038;2023-02-22T03:00:51;7.80;99.90
46231;DHT22;31949;51.404;-0.038;2023-02-22T03:03:50;7.70;99.90
46231;DHT22;31949;51.404;-0.038;2023-02-22T03:15:11;7.70;99.90
46231;DHT22;31949;51.404;-0.038;2023-02-22T03:23:04;7.70;99.90
46231;DHT22;31949;51.404;-0.038;2023-02-22T03:25:37;7.70;99.90
46231;DHT22;31949;51.404;-0.038;2023-02-22T03:28:09;7.70;99.90
46231;DHT22;31949;51.404;-0.038;2023-02-22T03:30:48;7.70;99.90
46231;DHT22;31949;51.404;-0.038;2023-02-22T03:33:24;7.70;99.90
46231;DHT22;31949;51.404;-0.038;2023-02-22T03:35:58;7.70;99.90
46231;DHT22;31949;51.404;-0.038;2023-02-22T03:38:28;7.70;99.90
46231;DHT22;31949;51.404;-0.038;2023-02-22T03:41:00;7.70;99.90
46231;DHT22;31949;51.404;-0.038;2023-02-22T03:43:35;7.70;99.90
46231;DHT22;31949;51.404;-0.038;2023-02-22T03:46:09;7.60;99.90
46231;DHT22;31949;51.404;-0.038;2023-02-22T03:48:47;7.60;99.90
46231;DHT22;31949;51.404;-0.038;2023-02-22T03:51:17;7.60;99.90
46231;DHT22;31949;51.404;-0.038;2023-02-22T03:53:49;7.70;99.90
46231;DHT22;31949;51.404;-0.038;2023-02-22T03:56:27;7.70;99.90
46231;DHT22;31949;51.404;-0.038;2023-02-22T03:59:04;7.60;99.90
46231;DHT22;31949;51.404;-0.038;2023-02-22T04:01:33;7.60;99.90
46231;DHT22;31949;51.404;-0.038;2023-02-22T04:04:00;7.60;99.90
46231;DHT22;31949;51.404;-0.038;2023-02-22T04:06:28;7.60;99.90
46231;DHT22;31949;51.404;-0.038;2023-02-22T04:08:57;7.50;99.90
46231;DHT22;31949;51.404;-0.038;2023-02-22T04:11:24;7.50;99.90
46231;DHT22;31949;51.404;-0.038;2023-02-22T04:13:52;7.50;99.90
46231;DHT22;31949;51.404;-0.038;2023-02-22T04:16:21;7.50;99.90
46231;DHT22;31949;51.404;-0.038;2023-02-22T04:18:49;7.50;99.90
46231;DHT22;31949;51.404;-0.038;2023-02-22T04:21:18;7.50;99.90
46231;DHT22;31949;51.404;-0.038;2023-02-22T04:23:48;7.50;99.90
46231;DHT22;31949;51.404;-0.038;2023-02-22T04:26:15;7.40;99.90
46231;DHT22;31949;51.404;-0.038;2023-02-22T04:28:48;7.40;99.90
46231;DHT22;31949;51.404;-0.038;2023-02-22T04:31:17;7.50;99.90
46231;DHT22;31949;51.404;-0.038;2023-02-22T04:33:47;7.40;99.90
46231;DHT22;31949;51.404;-0.038;2023-02-22T04:36:17;7.40;99.90
46231;DHT22;31949;51.404;-0.038;2023-02-22T04:38:44;7.40;99.90
46231;DHT22;31949;51.404;-0.038;2023-02-22T04:41:12;7.40;99.90
46231;DHT22;31949;51.404;-0.038;2023-02-22T04:43:40;7.40;99.90
46231;DHT22;31949;51.404;-0.038;2023-02-22T04:46:26;7.40;99.90
46231;DHT22;31949;51.404;-0.038;2023-02-22T04:48:54;7.40;99.90
46231;DHT22;31949;51.404;-0.038;2023-02-22T04:51:24;7.40;99.90
46231;DHT22;31949;51.404;-0.038;2023-02-22T04:53:56;7.40;99.90
46231;DHT22;31949;51.404;-0.038;2023-02-22T04:56:24;7.40;99.90
46231;DHT22;31949;51.404;-0.038;2023-02-22T04:58:52;7.50;99.90
46231;DHT22;31949;51.404;-0.038;2023-02-22T05:01:19;7.50;99.90
46231;DHT22;31949;51.404;-0.038;2023-02-22T05:03:46;7.50;99.90
46231;DHT22;31949;51.404;-0.038;2023-02-22T05:06:15;7.50;99.90
46231;DHT22;31949;51.404;-0.038;2023-02-22T05:08:43;7.50;99.90
46231;DHT22;31949;51.404;-0.038;2023-02-22T05:11:10;7.50;99.90
46231;DHT22;31949;51.404;-0.038;2023-02-22T05:13:37;7.50;99.90
46231;DHT22;31949;51.404;-0.038;2023-02-22T05:16:05;7.40;99.90
46231;DHT22;31949;51.404;-0.038;2023-02-22T05:18:32;7.40;99.90
46231;DHT22;31949;51.404;-0.038;2023-02-22T05:20:59;7.40;99.90
46231;DHT22;31949;51.404;-0.038;2023-02-22T05:23:27;7.40;99.90
46231;DHT22;31949;51.404;-0.038;2023-02-22T05:25:54;7.50;99.90
46231;DHT22;31949;51.404;-0.038;2023-02-22T05:28:21;7.50;99.90
46231;DHT22;31949;51.404;-0.038;2023-02-22T05:30:48;7.40;99.90
46231;DHT22;31949;51.404;-0.038;2023-02-22T05:33:16;7.40;99.90
46231;DHT22;31949;51.404;-0.038;2023-02-22T05:35:43;7.40;99.90
46231;DHT22;31949;51.404;-0.038;2023-02-22T05:38:13;7.40;99.90
46231;DHT22;31949;51.404;-0.038;2023-02-22T05:40:41;7.40;99.90
46231;DHT22;31949;51.404;-0.038;2023-02-22T05:43:09;7.40;99.90
46231;DHT22;31949;51.404;-0.038;2023-02-22T05:45:36;7.40;99.90
46231;DHT22;31949;51.404;-0.038;2023-02-22T05:48:04;7.40;99.90
46231;DHT22;31949;51.404;-0.038;2023-02-22T05:50:31;7.50;99.90
46231;DHT22;31949;51.404;-0.038;2023-02-22T05:52:59;7.50;99.90
46231;DHT22;31949;51.404;-0.038;2023-02-22T05:55:27;7.50;99.90
46231;DHT22;31949;51.404;-0.038;2023-02-22T05:57:54;7.40;99.90
46231;DHT22;31949;51.404;-0.038;2023-02-22T06:00:27;7.50;99.90
46231;DHT22;31949;51.404;-0.038;2023-02-22T06:03:04;7.50;99.90
46231;DHT22;31949;51.404;-0.038;2023-02-22T06:05:32;7.50;99.90
46231;DHT22;31949;51.404;-0.038;2023-02-22T06:08:00;7.50;99.90
46231;DHT22;31949;51.404;-0.038;2023-02-22T06:10:28;7.50;99.90
46231;DHT22;31949;51.404;-0.038;2023-02-22T06:12:56;7.50;99.90
46231;DHT22;31949;51.404;-0.038;2023-02-22T06:15:24;7.50;99.90
46231;DHT22;31949;51.404;-0.038;2023-02-22T06:17:52;7.50;99.90
46231;DHT22;31949;51.404;-0.038;2023-02-22T06:20:21;7.50;99.90
46231;DHT22;31949;51.404;-0.038;2023-02-22T06:22:50;7.60;99.90
46231;DHT22;31949;51.404;-0.038;2023-02-22T06:25:21;7.60;99.90
46231;DHT22;31949;51.404;-0.038;2023-02-22T06:27:50;7.70;99.90
46231;DHT22;31949;51.404;-0.038;2023-02-22T06:30:20;7.60;99.90
46231;DHT22;31949;51.404;-0.038;2023-02-22T06:32:48;7.60;99.90
46231;DHT22;31949;51.404;-0.038;2023-02-22T06:35:15;7.60;99.90
46231;DHT22;31949;51.404;-0.038;2023-02-22T06:37:43;7.60;99.90
46231;DHT22;31949;51.404;-0.038;2023-02-22T06:40:11;7.70;99.90
46231;DHT22;31949;51.404;-0.038;2023-02-22T06:42:39;7.60;99.90
46231;DHT22;31949;51.404;-0.038;2023-02-22T06:45:07;7.60;99.90
46231;DHT22;31949;51.404;-0.038;2023-02-22T06:47:40;7.60;99.90
46231;DHT22;31949;51.404;-0.038;2023-02-22T06:50:27;7.70;99.90
46231;DHT22;31949;51.404;-0.038;2023-02-22T06:52:59;7.70;99.90
46231;DHT22;31949;51.404;-0.038;2023-02-22T06:55:31;7.70;99.90
46231;DHT22;31949;51.404;-0.038;2023-02-22T06:57:59;7.70;99.90
46231;DHT22;31949;51.404;-0.038;2023-02-22T07:00:28;7.70;99.90
46231;DHT22;31949;51.404;-0.038;2023-02-22T07:02:57;7.60;99.90
46231;DHT22;31949;51.404;-0.038;2023-02-22T07:05:25;7.60;99.90
46231;DHT22;31949;51.404;-0.038;2023-02-22T07:07:54;7.60;99.90
46231;DHT22;31949;51.404;-0.038;2023-02-22T07:10:26;7.60;99.90
46231;DHT22;31949;51.404;-0.038;2023-02-22T07:12:53;7.50;99.90
46231;DHT22;31949;51.404;-0.038;2023-02-22T07:15:23;7.50;99.90
46231;DHT22;31949;51.404;-0.038;2023-02-22T07:17:51;7.60;99.90
46231;DHT22;31949;51.404;-0.038;2023-02-22T07:20:19;7.60;99.90
46231;DHT22;31949;51.404;-0.038;2023-02-22T07:22:47;7.60;99.90
46231;DHT22;31949;51.404;-0.038;2023-02-22T07:25:15;7.60;99.90
46231;DHT22;31949;51.404;-0.038;2023-02-22T07:27:42;7.60;99.90
46231;DHT22;31949;51.404;-0.038;2023-02-22T07:30:27;7.60;99.90
46231;DHT22;31949;51.404;-0.038;2023-02-22T07:32:59;7.70;99.90
46231;DHT22;31949;51.404;-0.038;2023-02-22T07:35:29;7.70;99.90
46231;DHT22;31949;51.404;-0.038;2023-02-22T07:37:57;7.70;99.90
46231;DHT22;31949;51.404;-0.038;2023-02-22T07:40:25;7.70;99.90
46231;DHT22;31949;51.404;-0.038;2023-02-22T07:43:03;7.70;99.90
46231;DHT22;31949;51.404;-0.038;2023-02-22T07:45:34;7.70;99.90
46231;DHT22;31949;51.404;-0.038;2023-02-22T07:48:03;7.70;99.90
46231;DHT22;31949;51.404;-0.038;2023-02-22T07:50:31;7.70;99.90
46231;DHT22;31949;51.404;-0.038;2023-02-22T07:53:01;7.70;99.90
46231;DHT22;31949;51.404;-0.038;2023-02-22T07:55:30;7.80;99.90
46231;DHT22;31949;51.404;-0.038;2023-02-22T07:58:00;7.80;99.90
46231;DHT22;31949;51.404;-0.038;2023-02-22T08:00:33;7.80;99.90
46231;DHT22;31949;51.404;-0.038;2023-02-22T08:03:03;7.80;99.90
46231;DHT22;31949;51.404;-0.038;2023-02-22T08:05:32;7.80;99.90
46231;DHT22;31949;51.404;-0.038;2023-02-22T08:07:59;7.90;99.90
46231;DHT22;31949;51.404;-0.038;2023-02-22T08:10:28;7.90;99.90
46231;DHT22;31949;51.404;-0.038;2023-02-22T08:12:57;7.90;99.90
46231;DHT22;31949;51.404;-0.038;2023-02-22T08:15:30;8.00;99.90
46231;DHT22;31949;51.404;-0.038;2023-02-22T08:17:58;8.00;99.90
46231;DHT22;31949;51.404;-0.038;2023-02-22T08:20:28;8.10;99.90
46231;DHT22;31949;51.404;-0.038;2023-02-22T08:22:56;8.10;99.90
46231;DHT22;31949;51.404;-0.038;2023-02-22T08:25:26;8.10;99.90
46231;DHT22;31949;51.404;-0.038;2023-02-22T08:27:58;8.10;99.90
46231;DHT22;31949;51.404;-0.038;2023-02-22T08:30:28;8.20;99.90
46231;DHT22;31949;51.404;-0.038;2023-02-22T08:32:57;8.20;99.90
46231;DHT22;31949;51.404;-0.038;2023-02-22T08:35:25;8.20;99.90
46231;DHT22;31949;51.404;-0.038;2023-02-22T08:37:59;8.20;99.90
46231;DHT22;31949;51.404;-0.038;2023-02-22T08:40:28;8.30;99.90
46231;DHT22;31949;51.404;-0.038;2023-02-22T08:42:57;8.30;99.90
46231;DHT22;31949;51.404;-0.038;2023-02-22T08:45:24;8.30;99.90
46231;DHT22;31949;51.404;-0.038;2023-02-22T08:47:51;8.30;99.90
46231;DHT22;31949;51.404;-0.038;2023-02-22T08:50:22;8.30;99.90
46231;DHT22;31949;51.404;-0.038;2023-02-22T08:52:54;8.30;99.90
46231;DHT22;31949;51.404;-0.038;2023-02-22T08:55:23;8.40;99.90
46231;DHT22;31949;51.404;-0.038;2023-02-22T08:57:51;8.40;99.90
46231;DHT22;31949;51.404;-0.038;2023-02-22T09:00:19;8.50;99.90
46231;DHT22;31949;51.404;-0.038;2023-02-22T09:02:46;8.50;99.90
46231;DHT22;31949;51.404;-0.038;2023-02-22T09:05:14;8.40;99.90
46231;DHT22;31949;51.404;-0.038;2023-02-22T09:07:43;8.40;99.90
46231;DHT22;31949;51.404;-0.038;2023-02-22T09:10:13;8.40;99.90
46231;DHT22;31949;51.404;-0.038;2023-02-22T09:12:43;8.40;99.90
46231;DHT22;31949;51.404;-0.038;2023-02-22T09:15:11;8.30;99.90
46231;DHT22;31949;51.404;-0.038;2023-02-22T09:17:38;8.40;99.90
46231;DHT22;31949;51.404;-0.038;2023-02-22T09:20:07;8.50;99.90
46231;DHT22;31949;51.404;-0.038;2023-02-22T09:22:34;8.40;99.90
46231;DHT22;31949;51.404;-0.038;2023-02-22T09:25:02;8.40;99.90
46231;DHT22;31949;51.404;-0.038;2023-02-22T09:27:42;8.40;99.90
46231;DHT22;31949;51.404;-0.038;2023-02-22T09:30:23;8.50;99.90
46231;DHT22;31949;51.404;-0.038;2023-02-22T09:32:52;8.40;99.90
46231;DHT22;31949;51.404;-0.038;2023-02-22T09:35:20;8.50;99.90
46231;DHT22;31949;51.404;-0.038;2023-02-22T09:37:58;8.50;99.90
46231;DHT22;31949;51.404;-0.038;2023-02-22T09:40:29;8.50;99.90
46231;DHT22;31949;51.404;-0.038;2023-02-22T09:45:43;8.50;99.90
46231;DHT22;31949;51.404;-0.038;2023-02-22T09:48:15;8.50;99.90
46231;DHT22;31949;51.404;-0.038;2023-02-22T09:50:51;8.60;99.90
46231;DHT22;31949;51.404;-0.038;2023-02-22T09:56:13;8.60;99.90
46231;DHT22;31949;51.404;-0.038;2023-02-22T09:58:45;8.70;99.90
46231;DHT22;31949;51.404;-0.038;2023-02-22T10:03:52;8.80;99.90
46231;DHT22;31949;51.404;-0.038;2023-02-22T10:06:23;8.80;99.90
46231;DHT22;31949;51.404;-0.038;2023-02-22T10:08:53;8.80;99.90
46231;DHT22;31949;51.404;-0.038;2023-02-22T10:11:34;8.90;99.90
46231;DHT22;31949;51.404;-0.038;2023-02-22T10:16:53;8.90;99.90
46231;DHT22;31949;51.404;-0.038;2023-02-22T10:24:53;9.10;99.90
46231;DHT22;31949;51.404;-0.038;2023-02-22T10:27:31;9.10;99.90
46231;DHT22;31949;51.404;-0.038;2023-02-22T10:33:06;9.00;99.90
46231;DHT22;31949;51.404;-0.038;2023-02-22T10:35:37;9.00;99.90
46231;DHT22;31949;51.404;-0.038;2023-02-22T10:38:17;9.10;99.90
46231;DHT22;31949;51.404;-0.038;2023-02-22T10:43:42;9.10;99.90
46231;DHT22;31949;51.404;-0.038;2023-02-22T10:46:15;9.10;99.90
46231;DHT22;31949;51.404;-0.038;2023-02-22T10:48:47;9.10;99.90
46231;DHT22;31949;51.404;-0.038;2023-02-22T10:51:16;9.10;99.90
46231;DHT22;31949;51.404;-0.038;2023-02-22T10:53:52;9.10;99.90
46231;DHT22;31949;51.404;-0.038;2023-02-22T10:56:23;9.20;99.90
46231;DHT22;31949;51.404;-0.038;2023-02-22T10:59:02;9.20;99.90
46231;DHT22;31949;51.404;-0.038;2023-02-22T11:04:20;9.20;99.90
46231;DHT22;31949;51.404;-0.038;2023-02-22T11:07:05;9.30;99.90
46231;DHT22;31949;51.404;-0.038;2023-02-22T11:09:55;9.30;99.90
46231;DHT22;31949;51.404;-0.038;2023-02-22T11:12:38;9.40;99.90
46231;DHT22;31949;51.404;-0.038;2023-02-22T11:17:47;9.60;99.90
46231;DHT22;31949;51.404;-0.038;2023-02-22T11:20:33;9.60;99.90
46231;DHT22;31949;51.404;-0.038;2023-02-22T11:23:03;9.60;99.90
46231;DHT22;31949;51.404;-0.038;2023-02-22T11:25:35;9.70;99.90
46231;DHT22;31949;51.404;-0.038;2023-02-22T11:28:10;9.60;99.90
46231;DHT22;31949;51.404;-0.038;2023-02-22T11:30:43;9.60;99.90
46231;DHT22;31949;51.404;-0.038;2023-02-22T11:33:17;9.60;99.90
46231;DHT22;31949;51.404;-0.038;2023-02-22T11:36:00;9.60;99.90
46231;DHT22;31949;51.404;-0.038;2023-02-22T11:38:32;9.70;99.90
46231;DHT22;31949;51.404;-0.038;2023-02-22T11:41:09;9.60;99.90
46231;DHT22;31949;51.404;-0.038;2023-02-22T11:43:37;9.60;99.90
46231;DHT22;31949;51.404;-0.038;2023-02-22T11:46:17;9.60;99.90
46231;DHT22;31949;51.404;-0.038;2023-02-22T11:56:47;9.60;99.90
46231;DHT22;31949;51.404;-0.038;2023-02-22T12:20:55;9.50;99.90
46231;DHT22;31949;51.404;-0.038;2023-02-22T12:23:53;9.50;99.90
46231;DHT22;31949;51.404;-0.038;2023-02-22T12:26:30;9.50;99.90
46231;DHT22;31949;51.404;-0.038;2023-02-22T12:29:21;9.50;99.90
46231;DHT22;31949;51.404;-0.038;2023-02-22T12:32:03;9.60;99.90
46231;DHT22;31949;51.404;-0.038;2023-02-22T12:34:44;9.60;99.90
46231;DHT22;31949;51.404;-0.038;2023-02-22T12:37:28;9.70;99.90
46231;DHT22;31949;51.404;-0.038;2023-02-22T12:40:38;9.60;99.90
46231;DHT22;31949;51.404;-0.038;2023-02-22T12:45:37;9.60;99.90
46231;DHT22;31949;51.404;-0.038;2023-02-22T12:54:06;9.60;99.90
46231;DHT22;31949;51.404;-0.038;2023-02-22T12:56:48;9.70;99.90
46231;DHT22;31949;51.404;-0.038;2023-02-22T12:59:40;9.70;99.90
46231;DHT22;31949;51.404;-0.038;2023-02-22T13:04:41;9.60;99.90
46231;DHT22;31949;51.404;-0.038;2023-02-22T13:07:27;9.50;99.90
46231;DHT22;31949;51.404;-0.038;2023-02-22T13:10:52;9.50;99.90
46231;DHT22;31949;51.404;-0.038;2023-02-22T13:16:04;9.50;99.90
46231;DHT22;31949;51.404;-0.038;2023-02-22T13:18:59;9.50;99.90
46231;DHT22;31949;51.404;-0.038;2023-02-22T13:21:45;9.50;99.90
46231;DHT22;31949;51.404;-0.038;2023-02-22T13:24:45;9.50;99.90
46231;DHT22;31949;51.404;-0.038;2023-02-22T13:27:23;9.50;99.90
46231;DHT22;31949;51.404;-0.038;2023-02-22T13:29:56;9.50;99.90
46231;DHT22;31949;51.404;-0.038;2023-02-22T13:38:28;9.40;99.90
46231;DHT22;31949;51.404;-0.038;2023-02-22T13:41:26;9.50;99.90
46231;DHT22;31949;51.404;-0.038;2023-02-22T13:52:42;9.40;99.90
46231;DHT22;31949;51.404;-0.038;2023-02-22T13:55:31;9.40;99.90
46231;DHT22;31949;51.404;-0.038;2023-02-22T13:58:07;9.40;99.90
46231;DHT22;31949;51.404;-0.038;2023-02-22T14:00:45;9.50;99.90
46231;DHT22;31949;51.404;-0.038;2023-02-22T14:16:30;9.60;99.90
46231;DHT22;31949;51.404;-0.038;2023-02-22T14:21:33;9.70;99.90
46231;DHT22;31949;51.404;-0.038;2023-02-22T14:24:11;9.70;99.90
46231;DHT22;31949;51.404;-0.038;2023-02-22T14:26:40;9.70;99.90
46231;DHT22;31949;51.404;-0.038;2023-02-22T14:29:19;9.80;99.90
46231;DHT22;31949;51.404;-0.038;2023-02-22T14:34:19;9.80;99.90
46231;DHT22;31949;51.404;-0.038;2023-02-22T14:39:46;9.90;99.90
46231;DHT22;31949;51.404;-0.038;2023-02-22T14:42:49;10.00;99.90
46231;DHT22;31949;51.404;-0.038;2023-02-22T14:45:23;10.00;99.90
46231;DHT22;31949;51.404;-0.038;2023-02-22T14:48:19;10.00;99.90
46231;DHT22;31949;51.404;-0.038;2023-02-22T14:50:58;10.00;99.90
46231;DHT22;31949;51.404;-0.038;2023-02-22T14:59:56;10.20;99.90
46231;DHT22;31949;51.404;-0.038;2023-02-22T15:02:37;10.30;99.90
46231;DHT22;31949;51.404;-0.038;2023-02-22T15:05:04;10.30;99.90
46231;DHT22;31949;51.404;-0.038;2023-02-22T15:07:32;10.30;99.90
46231;DHT22;31949;51.404;-0.038;2023-02-22T15:10:19;10.30;99.90
46231;DHT22;31949;51.404;-0.038;2023-02-22T15:12:55;10.40;99.90
46231;DHT22;31949;51.404;-0.038;2023-02-22T15:15:43;10.40;99.90
46231;DHT22;31949;51.404;-0.038;2023-02-22T15:21:09;10.40;99.90
46231;DHT22;31949;51.404;-0.038;2023-02-22T15:23:47;10.50;99.90
46231;DHT22;31949;51.404;-0.038;2023-02-22T15:26:18;10.50;99.90
46231;DHT22;31949;51.404;-0.038;2023-02-22T15:28:46;10.40;99.90
46231;DHT22;31949;51.404;-0.038;2023-02-22T15:31:17;10.50;99.90
46231;DHT22;31949;51.404;-0.038;2023-02-22T15:33:49;10.40;99.90
46231;DHT22;31949;51.404;-0.038;2023-02-22T15:36:23;10.40;99.90
46231;DHT22;31949;51.404;-0.038;2023-02-22T15:38:52;10.40;99.90
46231;DHT22;31949;51.404;-0.038;2023-02-22T15:41:29;10.40;99.90
46231;DHT22;31949;51.404;-0.038;2023-02-22T15:43:59;10.30;99.90
46231;DHT22;31949;51.404;-0.038;2023-02-22T15:46:34;10.40;99.90
46231;DHT22;31949;51.404;-0.038;2023-02-22T15:51:39;10.20;99.90
46231;DHT22;31949;51.404;-0.038;2023-02-22T15:54:08;10.20;99.90
46231;DHT22;31949;51.404;-0.038;2023-02-22T15:56:51;10.20;99.90
46231;DHT22;31949;51.404;-0.038;2023-02-22T15:59:23;10.30;99.90
46231;DHT22;31949;51.404;-0.038;2023-02-22T16:01:57;10.30;99.90
46231;DHT22;31949;51.404;-0.038;2023-02-22T16:04:30;10.30;99.90
46231;DHT22;31949;51.404;-0.038;2023-02-22T16:07:07;10.30;99.90
46231;DHT22;31949;51.404;-0.038;2023-02-22T16:09:49;10.20;99.90
46231;DHT22;31949;51.404;-0.038;2023-02-22T16:14:48;10.20;99.90
46231;DHT22;31949;51.404;-0.038;2023-02-22T16:17:45;10.20;99.90
46231;DHT22;31949;51.404;-0.038;2023-02-22T16:20:29;10.20;99.90
46231;DHT22;31949;51.404;-0.038;2023-02-22T16:22:57;10.20;99.90
46231;DHT22;31949;51.404;-0.038;2023-02-22T16:28:03;10.20;99.90
46231;DHT22;31949;51.404;-0.038;2023-02-22T16:30:56;10.20;99.90
46231;DHT22;31949;51.404;-0.038;2023-02-22T16:33:24;10.10;99.90
46231;DHT22;31949;51.404;-0.038;2023-02-22T16:35:55;10.10;99.90
46231;DHT22;31949;51.404;-0.038;2023-02-22T16:38:23;10.10;99.90
46231;DHT22;31949;51.404;-0.038;2023-02-22T16:40:55;10.10;99.90
46231;DHT22;31949;51.404;-0.038;2023-02-22T16:43:26;10.10;99.90
46231;DHT22;31949;51.404;-0.038;2023-02-22T16:45:55;10.10;99.90
46231;DHT22;31949;51.404;-0.038;2023-02-22T16:48:25;10.10;99.90
46231;DHT22;31949;51.404;-0.038;2023-02-22T16:50:54;10.10;99.90
46231;DHT22;31949;51.404;-0.038;2023-02-22T16:53:25;10.10;99.90
46231;DHT22;31949;51.404;-0.038;2023-02-22T16:55:56;10.00;99.90
46231;DHT22;31949;51.404;-0.038;2023-02-22T16:58:25;10.00;99.90
46231;DHT22;31949;51.404;-0.038;2023-02-22T17:00:56;10.00;99.90
46231;DHT22;31949;51.404;-0.038;2023-02-22T17:03:24;10.00;99.90
46231;DHT22;31949;51.404;-0.038;2023-02-22T17:05:52;9.90;99.90
46231;DHT22;31949;51.404;-0.038;2023-02-22T17:08:19;10.00;99.90
46231;DHT22;31949;51.404;-0.038;2023-02-22T17:10:47;10.00;99.90
46231;DHT22;31949;51.404;-0.038;2023-02-22T17:13:23;9.90;99.90
46231;DHT22;31949;51.404;-0.038;2023-02-22T17:15:53;9.90;99.90
46231;DHT22;31949;51.404;-0.038;2023-02-22T17:18:22;9.90;99.90
46231;DHT22;31949;51.404;-0.038;2023-02-22T17:20:53;9.90;99.90
46231;DHT22;31949;51.404;-0.038;2023-02-22T17:23:21;9.80;99.90
46231;DHT22;31949;51.404;-0.038;2023-02-22T17:26:00;9.70;99.90
46231;DHT22;31949;51.404;-0.038;2023-02-22T17:28:30;9.80;99.90
46231;DHT22;31949;51.404;-0.038;2023-02-22T17:30:58;9.70;99.90
46231;DHT22;31949;51.404;-0.038;2023-02-22T17:33:31;9.70;99.90
46231;DHT22;31949;51.404;-0.038;2023-02-22T17:36:01;9.70;99.90
46231;DHT22;31949;51.404;-0.038;2023-02-22T17:38:29;9.70;99.90
46231;DHT22;31949;51.404;-0.038;2023-02-22T17:40:57;9.70;99.90
46231;DHT22;31949;51.404;-0.038;2023-02-22T17:43:25;9.70;99.90
46231;DHT22;31949;51.404;-0.038;2023-02-22T17:45:54;9.70;99.90
46231;DHT22;31949;51.404;-0.038;2023-02-22T17:48:22;9.70;99.90
46231;DHT22;31949;51.404;-0.038;2023-02-22T17:50:51;9.70;99.90
46231;DHT22;31949;51.404;-0.038;2023-02-22T17:53:19;9.70;99.90
46231;DHT22;31949;51.404;-0.038;2023-02-22T17:55:51;9.70;99.90
46231;DHT22;31949;51.404;-0.038;2023-02-22T17:58:19;9.70;99.90
46231;DHT22;31949;51.404;-0.038;2023-02-22T18:00:48;9.70;99.90
46231;DHT22;31949;51.404;-0.038;2023-02-22T18:03:19;9.70;99.90
46231;DHT22;31949;51.404;-0.038;2023-02-22T18:05:52;9.60;99.90
46231;DHT22;31949;51.404;-0.038;2023-02-22T18:08:23;9.60;99.90
46231;DHT22;31949;51.404;-0.038;2023-02-22T18:10:51;9.60;99.90
46231;DHT22;31949;51.404;-0.038;2023-02-22T18:13:24;9.60;99.90
46231;DHT22;31949;51.404;-0.038;2023-02-22T18:15:52;9.60;99.90
46231;DHT22;31949;51.404;-0.038;2023-02-22T18:18:23;9.50;99.90
46231;DHT22;31949;51.404;-0.038;2023-02-22T18:20:51;9.50;99.90
46231;DHT22;31949;51.404;-0.038;2023-02-22T18:23:21;9.50;99.90
46231;DHT22;31949;51.404;-0.038;2023-02-22T18:25:51;9.50;99.90
46231;DHT22;31949;51.404;-0.038;2023-02-22T18:28:36;9.50;99.90
46231;DHT22;31949;51.404;-0.038;2023-02-22T18:31:11;9.50;99.90
46231;DHT22;31949;51.404;-0.038;2023-02-22T18:33:41;9.50;99.90
46231;DHT22;31949;51.404;-0.038;2023-02-22T18:36:10;9.50;99.90
46231;DHT22;31949;51.404;-0.038;2023-02-22T18:38:38;9.50;99.90
46231;DHT22;31949;51.404;-0.038;2023-02-22T18:41:14;9.50;99.90